sensor_id;sensor_type;location;lat;lon;timestamp;P1;durP1;ratioP1;P2;durP2;ratioP2
20954;SDS011;10636;19.390;-99.256;2023-12-20T00:02:05;34.05;;;28.27;;
20954;SDS011;10636;19.390;-99.256;2023-12-20T00:04:33;35.67;;;23.80;;
20954;SDS011;10636;19.390;-99.256;2023-12-20T00:07:02;34.53;;;23.48;;
20954;SDS011;10636;19.390;-99.256;2023-12-20T00:09:31;33.10;;;22.58;;
20954;SDS011;10636;19.390;-99.256;2023-12-20T00:12:02;33.50;;;25.63;;
20954;SDS011;10636;19.390;-99.256;2023-12-20T00:14:31;33.47;;;23.23;;
20954;SDS011;10636;19.390;-99.256;2023-12-20T00:17:00;35.35;;;26.70;;
20954;SDS011;10636;19.390;-99.256;2023-12-20T00:19:29;33.92;;;26.80;;
20954;SDS011;10636;19.390;-99.256;2023-12-20T00:21:57;34.53;;;26.95;;
20954;SDS011;10636;19.390;-99.256;2023-12-20T00:24:27;36.50;;;27.83;;
20954;SDS011;10636;19.390;-99.256;2023-12-20T00:26:55;37.80;;;24.33;;
20954;SDS011;10636;19.390;-99.256;2023-12-20T00:29:26;35.55;;;23.98;;
20954;SDS011;10636;19.390;-99.256;2023-12-20T00:31:55;37.25;;;25.67;;
20954;SDS011;10636;19.390;-99.256;2023-12-20T00:34:23;37.05;;;24.17;;
20954;SDS011;10636;19.390;-99.256;2023-12-20T00:36:52;39.58;;;29.50;;
20954;SDS011;10636;19.390;-99.256;2023-12-20T00:39:21;37.90;;;24.95;;
20954;SDS011;10636;19.390;-99.256;2023-12-20T00:41:50;40.70;;;30.83;;
20954;SDS011;10636;19.390;-99.256;2023-12-20T00:44:18;38.45;;;25.52;;
20954;SDS011;10636;19.390;-99.256;2023-12-20T00:46:49;43.47;;;27.30;;
20954;SDS011;10636;19.390;-99.256;2023-12-20T00:49:17;42.03;;;32.85;;
20954;SDS011;10636;19.390;-99.256;2023-12-20T00:51:46;44.25;;;31.35;;
20954;SDS011;10636;19.390;-99.256;2023-12-20T00:54:16;39.95;;;26.15;;
20954;SDS011;10636;19.390;-99.256;2023-12-20T00:56:44;41.08;;;26.42;;
20954;SDS011;10636;19.390;-99.256;2023-12-20T00:59:13;39.83;;;31.50;;
20954;SDS011;10636;19.390;-99.256;2023-12-20T01:01:42;43.58;;;32.97;;
20954;SDS011;10636;19.390;-99.256;2023-12-20T01:04:13;40.70;;;31.92;;
20954;SDS011;10636;19.390;-99.256;2023-12-20T01:06:42;35.85;;;28.77;;
20954;SDS011;10636;19.390;-99.256;2023-12-20T01:09:11;33.05;;;22.20;;
20954;SDS011;10636;19.390;-99.256;2023-12-20T01:11:40;33.63;;;21.67;;
20954;SDS011;10636;19.390;-99.256;2023-12-20T01:14:08;28.80;;;25.05;;
20954;SDS011;10636;19.390;-99.256;2023-12-20T01:16:37;28.00;;;24.08;;
20954;SDS011;10636;19.390;-99.256;2023-12-20T01:19:06;30.90;;;24.17;;
20954;SDS011;10636;19.390;-99.256;2023-12-20T01:21:36;25.48;;;21.55;;
20954;SDS011;10636;19.390;-99.256;2023-12-20T01:24:05;25.08;;;21.15;;
20954;SDS011;10636;19.390;-99.256;2023-12-20T01:26:34;22.65;;;19.38;;
20954;SDS011;10636;19.390;-99.256;2023-12-20T01:29:02;21.55;;;19.05;;
20954;SDS011;10636;19.390;-99.256;2023-12-20T01:31:31;23.90;;;19.35;;
20954;SDS011;10636;19.390;-99.256;2023-12-20T01:34:00;22.33;;;15.68;;
20954;SDS011;10636;19.390;-99.256;2023-12-20T01:36:28;22.63;;;16.42;;
20954;SDS011;10636;19.390;-99.256;2023-12-20T01:38:59;23.42;;;17.75;;
20954;SDS011;10636;19.390;-99.256;2023-12-20T01:41:28;21.35;;;17.33;;
20954;SDS011;10636;19.390;-99.256;2023-12-20T01:43:57;19.77;;;16.67;;
20954;SDS011;10636;19.390;-99.256;2023-12-20T01:46:25;23.10;;;17.05;;
20954;SDS011;10636;19.390;-99.256;2023-12-20T01:48:55;22.48;;;17.20;;
20954;SDS011;10636;19.390;-99.256;2023-12-20T01:51:23;21.05;;;17.58;;
20954;SDS011;10636;19.390;-99.256;2023-12-20T01:54:02;21.65;;;18.27;;
20954;SDS011;10636;19.390;-99.256;2023-12-20T01:56:31;23.50;;;16.00;;
20954;SDS011;10636;19.390;-99.256;2023-12-20T01:59:01;23.75;;;17.23;;
20954;SDS011;10636;19.390;-99.256;2023-12-20T02:01:30;24.95;;;18.73;;
20954;SDS011;10636;19.390;-99.256;2023-12-20T02:03:59;18.63;;;16.63;;
20954;SDS011;10636;19.390;-99.256;2023-12-20T02:06:28;20.40;;;18.13;;
20954;SDS011;10636;19.390;-99.256;2023-12-20T02:08:58;20.48;;;15.32;;
20954;SDS011;10636;19.390;-99.256;2023-12-20T02:11:29;21.30;;;14.88;;
20954;SDS011;10636;19.390;-99.256;2023-12-20T02:14:02;17.77;;;15.88;;
20954;SDS011;10636;19.390;-99.256;2023-12-20T02:16:32;19.13;;;15.15;;
20954;SDS011;10636;19.390;-99.256;2023-12-20T02:19:00;18.55;;;14.13;;
20954;SDS011;10636;19.390;-99.256;2023-12-20T02:21:33;21.30;;;15.63;;
20954;SDS011;10636;19.390;-99.256;2023-12-20T02:24:02;21.70;;;15.73;;
20954;SDS011;10636;19.390;-99.256;2023-12-20T02:26:32;18.98;;;16.98;;
20954;SDS011;10636;19.390;-99.256;2023-12-20T02:29:01;23.38;;;17.98;;
20954;SDS011;10636;19.390;-99.256;2023-12-20T02:31:29;26.48;;;16.65;;
20954;SDS011;10636;19.390;-99.256;2023-12-20T02:34:00;20.83;;;15.73;;
20954;SDS011;10636;19.390;-99.256;2023-12-20T02:36:29;21.48;;;16.55;;
20954;SDS011;10636;19.390;-99.256;2023-12-20T02:38:59;20.02;;;17.88;;
20954;SDS011;10636;19.390;-99.256;2023-12-20T02:41:28;21.23;;;17.25;;
20954;SDS011;10636;19.390;-99.256;2023-12-20T02:43:57;21.67;;;17.20;;
20954;SDS011;10636;19.390;-99.256;2023-12-20T02:46:29;19.65;;;15.18;;
20954;SDS011;10636;19.390;-99.256;2023-12-20T02:48:58;23.58;;;17.60;;
20954;SDS011;10636;19.390;-99.256;2023-12-20T02:51:29;22.88;;;17.38;;
20954;SDS011;10636;19.390;-99.256;2023-12-20T02:54:00;22.42;;;18.60;;
20954;SDS011;10636;19.390;-99.256;2023-12-20T02:56:28;20.80;;;15.75;;
20954;SDS011;10636;19.390;-99.256;2023-12-20T02:58:57;19.90;;;17.80;;
20954;SDS011;10636;19.390;-99.256;2023-12-20T03:01:26;22.50;;;16.73;;
20954;SDS011;10636;19.390;-99.256;2023-12-20T03:03:55;20.25;;;17.10;;
20954;SDS011;10636;19.390;-99.256;2023-12-20T03:06:24;24.25;;;16.58;;
20954;SDS011;10636;19.390;-99.256;2023-12-20T03:08:52;19.55;;;15.60;;
20954;SDS011;10636;19.390;-99.256;2023-12-20T03:11:26;18.73;;;14.73;;
20954;SDS011;10636;19.390;-99.256;2023-12-20T03:13:54;18.70;;;15.50;;
20954;SDS011;10636;19.390;-99.256;2023-12-20T03:16:23;21.00;;;15.70;;
20954;SDS011;10636;19.390;-99.256;2023-12-20T03:18:52;18.20;;;14.43;;
20954;SDS011;10636;19.390;-99.256;2023-12-20T03:21:21;17.92;;;16.13;;
20954;SDS011;10636;19.390;-99.256;2023-12-20T03:23:50;15.88;;;14.18;;
20954;SDS011;10636;19.390;-99.256;2023-12-20T03:26:19;16.92;;;13.95;;
20954;SDS011;10636;19.390;-99.256;2023-12-20T03:28:49;19.05;;;15.02;;
20954;SDS011;10636;19.390;-99.256;2023-12-20T03:31:18;18.67;;;14.32;;
20954;SDS011;10636;19.390;-99.256;2023-12-20T03:33:47;19.15;;;14.07;;
20954;SDS011;10636;19.390;-99.256;2023-12-20T03:36:16;19.05;;;14.98;;
20954;SDS011;10636;19.390;-99.256;2023-12-20T03:38:45;18.10;;;14.20;;
20954;SDS011;10636;19.390;-99.256;2023-12-20T03:41:14;19.25;;;15.32;;
20954;SDS011;10636;19.390;-99.256;2023-12-20T03:43:43;17.05;;;14.23;;
20954;SDS011;10636;19.390;-99.256;2023-12-20T03:46:13;20.83;;;14.93;;
20954;SDS011;10636;19.390;-99.256;2023-12-20T03:48:42;17.95;;;15.15;;
20954;SDS011;10636;19.390;-99.256;2023-12-20T03:51:10;19.92;;;15.82;;
20954;SDS011;10636;19.390;-99.256;2023-12-20T03:53:39;19.38;;;17.35;;
20954;SDS011;10636;19.390;-99.256;2023-12-20T03:56:08;18.85;;;16.92;;
20954;SDS011;10636;19.390;-99.256;2023-12-20T03:58:37;19.38;;;17.10;;
20954;SDS011;10636;19.390;-99.256;2023-12-20T04:01:09;20.45;;;17.65;;
20954;SDS011;10636;19.390;-99.256;2023-12-20T04:03:42;20.75;;;18.55;;
20954;SDS011;10636;19.390;-99.256;2023-12-20T04:06:10;19.88;;;16.88;;
20954;SDS011;10636;19.390;-99.256;2023-12-20T04:08:45;20.30;;;15.88;;
20954;SDS011;10636;19.390;-99.256;2023-12-20T04:11:14;21.67;;;16.13;;
20954;SDS011;10636;19.390;-99.256;2023-12-20T04:13:43;20.10;;;16.23;;
20954;SDS011;10636;19.390;-99.256;2023-12-20T04:16:14;20.60;;;18.50;;
20954;SDS011;10636;19.390;-99.256;2023-12-20T04:18:43;18.75;;;15.60;;
20954;SDS011;10636;19.390;-99.256;2023-12-20T04:21:11;16.98;;;14.63;;
20954;SDS011;10636;19.390;-99.256;2023-12-20T04:23:40;17.40;;;14.85;;
20954;SDS011;10636;19.390;-99.256;2023-12-20T04:26:09;16.98;;;14.20;;
20954;SDS011;10636;19.390;-99.256;2023-12-20T04:28:38;20.08;;;18.08;;
20954;SDS011;10636;19.390;-99.256;2023-12-20T04:31:07;17.88;;;16.13;;
20954;SDS011;10636;19.390;-99.256;2023-12-20T04:33:38;18.80;;;16.75;;
20954;SDS011;10636;19.390;-99.256;2023-12-20T04:36:07;20.70;;;18.70;;
20954;SDS011;10636;19.390;-99.256;2023-12-20T04:38:36;21.08;;;19.13;;
20954;SDS011;10636;19.390;-99.256;2023-12-20T04:41:05;21.60;;;19.67;;
20954;SDS011;10636;19.390;-99.256;2023-12-20T04:43:41;15.95;;;13.30;;
20954;SDS011;10636;19.390;-99.256;2023-12-20T04:46:10;15.77;;;13.35;;
20954;SDS011;10636;19.390;-99.256;2023-12-20T04:48:40;15.80;;;13.15;;
20954;SDS011;10636;19.390;-99.256;2023-12-20T04:51:09;23.45;;;21.55;;
20954;SDS011;10636;19.390;-99.256;2023-12-20T04:53:38;25.45;;;23.48;;
20954;SDS011;10636;19.390;-99.256;2023-12-20T04:56:06;16.55;;;13.85;;
20954;SDS011;10636;19.390;-99.256;2023-12-20T04:58:35;15.80;;;13.55;;
20954;SDS011;10636;19.390;-99.256;2023-12-20T05:01:04;29.90;;;27.77;;
20954;SDS011;10636;19.390;-99.256;2023-12-20T05:03:34;27.08;;;24.92;;
20954;SDS011;10636;19.390;-99.256;2023-12-20T05:06:04;15.48;;;13.25;;
20954;SDS011;10636;19.390;-99.256;2023-12-20T05:08:33;14.98;;;12.73;;
20954;SDS011;10636;19.390;-99.256;2023-12-20T05:11:02;31.30;;;29.05;;
20954;SDS011;10636;19.390;-99.256;2023-12-20T05:13:32;29.27;;;27.10;;
20954;SDS011;10636;19.390;-99.256;2023-12-20T05:16:01;14.52;;;12.93;;
20954;SDS011;10636;19.390;-99.256;2023-12-20T05:18:30;15.45;;;12.93;;
20954;SDS011;10636;19.390;-99.256;2023-12-20T05:20:59;37.97;;;35.38;;
20954;SDS011;10636;19.390;-99.256;2023-12-20T05:23:29;30.70;;;28.55;;
20954;SDS011;10636;19.390;-99.256;2023-12-20T05:25:58;14.88;;;13.15;;
20954;SDS011;10636;19.390;-99.256;2023-12-20T05:28:30;14.55;;;12.77;;
20954;SDS011;10636;19.390;-99.256;2023-12-20T05:30:58;30.13;;;28.08;;
20954;SDS011;10636;19.390;-99.256;2023-12-20T05:33:28;14.88;;;12.27;;
20954;SDS011;10636;19.390;-99.256;2023-12-20T05:35:56;13.50;;;11.75;;
20954;SDS011;10636;19.390;-99.256;2023-12-20T05:38:25;15.25;;;12.88;;
20954;SDS011;10636;19.390;-99.256;2023-12-20T05:40:55;13.88;;;12.07;;
20954;SDS011;10636;19.390;-99.256;2023-12-20T05:43:24;13.63;;;12.15;;
20954;SDS011;10636;19.390;-99.256;2023-12-20T05:45:53;33.20;;;30.92;;
20954;SDS011;10636;19.390;-99.256;2023-12-20T05:48:22;31.70;;;29.58;;
20954;SDS011;10636;19.390;-99.256;2023-12-20T05:50:50;32.42;;;30.25;;
20954;SDS011;10636;19.390;-99.256;2023-12-20T05:53:19;36.17;;;33.88;;
20954;SDS011;10636;19.390;-99.256;2023-12-20T05:55:48;13.63;;;12.00;;
20954;SDS011;10636;19.390;-99.256;2023-12-20T05:58:19;37.45;;;35.13;;
20954;SDS011;10636;19.390;-99.256;2023-12-20T06:00:51;12.45;;;11.05;;
20954;SDS011;10636;19.390;-99.256;2023-12-20T06:03:23;34.15;;;31.98;;
20954;SDS011;10636;19.390;-99.256;2023-12-20T06:05:55;34.45;;;32.28;;
20954;SDS011;10636;19.390;-99.256;2023-12-20T06:08:32;30.27;;;28.38;;
20954;SDS011;10636;19.390;-99.256;2023-12-20T06:11:00;14.50;;;11.77;;
20954;SDS011;10636;19.390;-99.256;2023-12-20T06:13:31;13.07;;;11.27;;
20954;SDS011;10636;19.390;-99.256;2023-12-20T06:16:01;13.40;;;11.23;;
20954;SDS011;10636;19.390;-99.256;2023-12-20T06:18:31;11.93;;;10.68;;
20954;SDS011;10636;19.390;-99.256;2023-12-20T06:20:59;12.45;;;11.13;;
20954;SDS011;10636;19.390;-99.256;2023-12-20T06:23:28;12.07;;;10.77;;
20954;SDS011;10636;19.390;-99.256;2023-12-20T06:25:56;13.27;;;11.23;;
20954;SDS011;10636;19.390;-99.256;2023-12-20T06:28:26;12.60;;;11.13;;
20954;SDS011;10636;19.390;-99.256;2023-12-20T06:30:58;34.17;;;32.15;;
20954;SDS011;10636;19.390;-99.256;2023-12-20T06:33:26;32.50;;;30.40;;
20954;SDS011;10636;19.390;-99.256;2023-12-20T06:35:56;32.47;;;30.42;;
20954;SDS011;10636;19.390;-99.256;2023-12-20T06:38:26;12.68;;;10.70;;
20954;SDS011;10636;19.390;-99.256;2023-12-20T06:40:55;31.75;;;29.75;;
20954;SDS011;10636;19.390;-99.256;2023-12-20T06:43:25;14.68;;;11.70;;
20954;SDS011;10636;19.390;-99.256;2023-12-20T06:45:54;13.40;;;11.20;;
20954;SDS011;10636;19.390;-99.256;2023-12-20T06:48:24;12.95;;;10.70;;
20954;SDS011;10636;19.390;-99.256;2023-12-20T06:50:53;14.18;;;10.70;;
20954;SDS011;10636;19.390;-99.256;2023-12-20T06:53:22;30.38;;;28.35;;
20954;SDS011;10636;19.390;-99.256;2023-12-20T06:55:49;32.78;;;30.67;;
20954;SDS011;10636;19.390;-99.256;2023-12-20T06:58:18;11.73;;;10.52;;
20954;SDS011;10636;19.390;-99.256;2023-12-20T07:00:47;12.52;;;11.23;;
20954;SDS011;10636;19.390;-99.256;2023-12-20T07:03:16;12.00;;;10.73;;
20954;SDS011;10636;19.390;-99.256;2023-12-20T07:05:46;12.30;;;10.63;;
20954;SDS011;10636;19.390;-99.256;2023-12-20T07:08:15;35.30;;;33.13;;
20954;SDS011;10636;19.390;-99.256;2023-12-20T07:10:45;12.07;;;10.05;;
20954;SDS011;10636;19.390;-99.256;2023-12-20T07:13:13;31.63;;;29.58;;
20954;SDS011;10636;19.390;-99.256;2023-12-20T07:15:42;11.50;;;10.30;;
20954;SDS011;10636;19.390;-99.256;2023-12-20T07:18:11;12.00;;;10.38;;
20954;SDS011;10636;19.390;-99.256;2023-12-20T07:20:39;12.20;;;10.15;;
20954;SDS011;10636;19.390;-99.256;2023-12-20T07:23:10;11.75;;;10.30;;
20954;SDS011;10636;19.390;-99.256;2023-12-20T07:25:39;32.10;;;30.10;;
20954;SDS011;10636;19.390;-99.256;2023-12-20T07:28:07;11.25;;;10.00;;
20954;SDS011;10636;19.390;-99.256;2023-12-20T07:30:36;11.80;;;10.60;;
20954;SDS011;10636;19.390;-99.256;2023-12-20T07:33:05;10.88;;;9.77;;
20954;SDS011;10636;19.390;-99.256;2023-12-20T07:35:35;11.57;;;10.38;;
20954;SDS011;10636;19.390;-99.256;2023-12-20T07:38:04;14.00;;;10.00;;
20954;SDS011;10636;19.390;-99.256;2023-12-20T07:40:34;12.25;;;10.15;;
20954;SDS011;10636;19.390;-99.256;2023-12-20T07:43:03;11.55;;;10.25;;
20954;SDS011;10636;19.390;-99.256;2023-12-20T07:45:31;12.32;;;10.38;;
20954;SDS011;10636;19.390;-99.256;2023-12-20T07:48:00;27.67;;;25.83;;
20954;SDS011;10636;19.390;-99.256;2023-12-20T07:50:29;11.80;;;10.60;;
20954;SDS011;10636;19.390;-99.256;2023-12-20T07:52:58;13.35;;;10.73;;
20954;SDS011;10636;19.390;-99.256;2023-12-20T07:55:27;12.48;;;10.77;;
20954;SDS011;10636;19.390;-99.256;2023-12-20T07:57:57;29.33;;;27.30;;
20954;SDS011;10636;19.390;-99.256;2023-12-20T08:00:26;33.78;;;31.67;;
20954;SDS011;10636;19.390;-99.256;2023-12-20T08:02:58;33.47;;;31.27;;
20954;SDS011;10636;19.390;-99.256;2023-12-20T08:05:29;33.08;;;31.00;;
20954;SDS011;10636;19.390;-99.256;2023-12-20T08:07:57;31.27;;;29.15;;
20954;SDS011;10636;19.390;-99.256;2023-12-20T08:10:26;32.95;;;30.75;;
20954;SDS011;10636;19.390;-99.256;2023-12-20T08:12:57;29.50;;;27.50;;
20954;SDS011;10636;19.390;-99.256;2023-12-20T08:15:26;33.10;;;31.00;;
20954;SDS011;10636;19.390;-99.256;2023-12-20T08:17:55;33.95;;;31.65;;
20954;SDS011;10636;19.390;-99.256;2023-12-20T08:20:23;13.77;;;12.30;;
20954;SDS011;10636;19.390;-99.256;2023-12-20T08:22:52;26.73;;;24.73;;
20954;SDS011;10636;19.390;-99.256;2023-12-20T08:25:21;13.57;;;11.73;;
20954;SDS011;10636;19.390;-99.256;2023-12-20T08:27:49;26.40;;;24.63;;
20954;SDS011;10636;19.390;-99.256;2023-12-20T08:30:20;34.03;;;31.73;;
20954;SDS011;10636;19.390;-99.256;2023-12-20T08:32:49;34.95;;;32.53;;
20954;SDS011;10636;19.390;-99.256;2023-12-20T08:35:17;34.30;;;32.10;;
20954;SDS011;10636;19.390;-99.256;2023-12-20T08:37:46;14.57;;;12.95;;
20954;SDS011;10636;19.390;-99.256;2023-12-20T08:40:15;14.68;;;12.63;;
20954;SDS011;10636;19.390;-99.256;2023-12-20T08:42:44;36.38;;;34.08;;
20954;SDS011;10636;19.390;-99.256;2023-12-20T08:45:12;35.15;;;32.90;;
20954;SDS011;10636;19.390;-99.256;2023-12-20T08:47:43;15.15;;;13.55;;
20954;SDS011;10636;19.390;-99.256;2023-12-20T08:50:12;17.50;;;13.43;;
20954;SDS011;10636;19.390;-99.256;2023-12-20T08:52:41;15.93;;;13.68;;
20954;SDS011;10636;19.390;-99.256;2023-12-20T08:55:09;15.52;;;12.82;;
20954;SDS011;10636;19.390;-99.256;2023-12-20T08:57:38;16.02;;;13.48;;
20954;SDS011;10636;19.390;-99.256;2023-12-20T09:00:07;16.52;;;14.00;;
20954;SDS011;10636;19.390;-99.256;2023-12-20T09:02:37;33.55;;;31.17;;
20954;SDS011;10636;19.390;-99.256;2023-12-20T09:05:07;36.33;;;33.72;;
20954;SDS011;10636;19.390;-99.256;2023-12-20T09:07:36;34.30;;;31.90;;
20954;SDS011;10636;19.390;-99.256;2023-12-20T09:10:05;35.67;;;33.17;;
20954;SDS011;10636;19.390;-99.256;2023-12-20T09:12:34;35.50;;;33.10;;
20954;SDS011;10636;19.390;-99.256;2023-12-20T09:15:05;36.13;;;33.63;;
20954;SDS011;10636;19.390;-99.256;2023-12-20T09:17:34;32.38;;;30.20;;
20954;SDS011;10636;19.390;-99.256;2023-12-20T09:20:03;17.63;;;14.82;;
20954;SDS011;10636;19.390;-99.256;2023-12-20T09:22:35;17.83;;;14.77;;
20954;SDS011;10636;19.390;-99.256;2023-12-20T09:25:05;34.47;;;31.92;;
20954;SDS011;10636;19.390;-99.256;2023-12-20T09:27:34;16.75;;;15.05;;
20954;SDS011;10636;19.390;-99.256;2023-12-20T09:30:03;17.42;;;14.48;;
20954;SDS011;10636;19.390;-99.256;2023-12-20T09:32:32;31.35;;;29.02;;
20954;SDS011;10636;19.390;-99.256;2023-12-20T09:35:01;34.10;;;31.73;;
20954;SDS011;10636;19.390;-99.256;2023-12-20T09:37:31;35.63;;;32.80;;
20954;SDS011;10636;19.390;-99.256;2023-12-20T09:40:01;31.90;;;29.50;;
20954;SDS011;10636;19.390;-99.256;2023-12-20T09:42:33;18.33;;;16.08;;
20954;SDS011;10636;19.390;-99.256;2023-12-20T09:45:08;35.95;;;33.40;;
20954;SDS011;10636;19.390;-99.256;2023-12-20T09:47:37;17.85;;;15.77;;
20954;SDS011;10636;19.390;-99.256;2023-12-20T09:50:06;18.58;;;15.30;;
20954;SDS011;10636;19.390;-99.256;2023-12-20T09:52:35;35.22;;;32.72;;
20954;SDS011;10636;19.390;-99.256;2023-12-20T09:55:08;36.72;;;34.17;;
20954;SDS011;10636;19.390;-99.256;2023-12-20T09:57:37;19.30;;;15.50;;
20954;SDS011;10636;19.390;-99.256;2023-12-20T10:00:07;17.45;;;14.93;;
20954;SDS011;10636;19.390;-99.256;2023-12-20T10:02:37;17.63;;;15.15;;
20954;SDS011;10636;19.390;-99.256;2023-12-20T10:05:09;16.83;;;14.50;;
20954;SDS011;10636;19.390;-99.256;2023-12-20T10:07:44;30.48;;;28.17;;
20954;SDS011;10636;19.390;-99.256;2023-12-20T10:10:15;35.53;;;33.13;;
20954;SDS011;10636;19.390;-99.256;2023-12-20T10:13:00;34.40;;;31.83;;
20954;SDS011;10636;19.390;-99.256;2023-12-20T10:15:30;35.13;;;32.53;;
20954;SDS011;10636;19.390;-99.256;2023-12-20T10:17:59;33.25;;;31.05;;
20954;SDS011;10636;19.390;-99.256;2023-12-20T10:20:28;35.13;;;32.65;;
20954;SDS011;10636;19.390;-99.256;2023-12-20T10:22:57;34.20;;;31.50;;
20954;SDS011;10636;19.390;-99.256;2023-12-20T10:25:29;36.03;;;33.45;;
20954;SDS011;10636;19.390;-99.256;2023-12-20T10:28:10;35.08;;;32.65;;
20954;SDS011;10636;19.390;-99.256;2023-12-20T10:30:40;33.97;;;31.58;;
20954;SDS011;10636;19.390;-99.256;2023-12-20T10:33:09;34.92;;;32.22;;
20954;SDS011;10636;19.390;-99.256;2023-12-20T10:35:38;33.88;;;31.38;;
20954;SDS011;10636;19.390;-99.256;2023-12-20T10:38:07;33.97;;;31.67;;
20954;SDS011;10636;19.390;-99.256;2023-12-20T10:40:38;31.90;;;29.58;;
20954;SDS011;10636;19.390;-99.256;2023-12-20T10:43:07;33.10;;;30.80;;
20954;SDS011;10636;19.390;-99.256;2023-12-20T10:45:37;33.92;;;31.42;;
20954;SDS011;10636;19.390;-99.256;2023-12-20T10:48:06;33.08;;;30.80;;
20954;SDS011;10636;19.390;-99.256;2023-12-20T10:50:38;33.78;;;31.20;;
20954;SDS011;10636;19.390;-99.256;2023-12-20T10:53:08;34.30;;;32.00;;
20954;SDS011;10636;19.390;-99.256;2023-12-20T10:55:39;32.85;;;30.63;;
20954;SDS011;10636;19.390;-99.256;2023-12-20T10:58:10;33.80;;;31.40;;
20954;SDS011;10636;19.390;-99.256;2023-12-20T11:00:40;31.35;;;29.00;;
20954;SDS011;10636;19.390;-99.256;2023-12-20T11:03:11;35.50;;;33.20;;
20954;SDS011;10636;19.390;-99.256;2023-12-20T11:05:42;31.27;;;29.08;;
20954;SDS011;10636;19.390;-99.256;2023-12-20T11:08:19;32.40;;;30.08;;
20954;SDS011;10636;19.390;-99.256;2023-12-20T11:10:56;36.50;;;33.90;;
20954;SDS011;10636;19.390;-99.256;2023-12-20T11:13:31;34.08;;;31.70;;
20954;SDS011;10636;19.390;-99.256;2023-12-20T11:16:03;34.80;;;32.33;;
20954;SDS011;10636;19.390;-99.256;2023-12-20T11:18:33;34.65;;;31.95;;
20954;SDS011;10636;19.390;-99.256;2023-12-20T11:21:03;32.58;;;30.17;;
20954;SDS011;10636;19.390;-99.256;2023-12-20T11:23:32;34.35;;;31.85;;
20954;SDS011;10636;19.390;-99.256;2023-12-20T11:26:03;32.25;;;29.98;;
20954;SDS011;10636;19.390;-99.256;2023-12-20T11:28:32;33.67;;;31.48;;
20954;SDS011;10636;19.390;-99.256;2023-12-20T11:31:01;32.63;;;30.33;;
20954;SDS011;10636;19.390;-99.256;2023-12-20T11:33:30;30.25;;;28.23;;
20954;SDS011;10636;19.390;-99.256;2023-12-20T11:36:03;32.20;;;29.63;;
20954;SDS011;10636;19.390;-99.256;2023-12-20T11:38:49;32.30;;;30.10;;
20954;SDS011;10636;19.390;-99.256;2023-12-20T11:41:25;28.88;;;26.88;;
20954;SDS011;10636;19.390;-99.256;2023-12-20T11:43:54;32.00;;;29.88;;
20954;SDS011;10636;19.390;-99.256;2023-12-20T11:46:23;29.95;;;27.75;;
20954;SDS011;10636;19.390;-99.256;2023-12-20T11:48:54;29.33;;;27.33;;
20954;SDS011;10636;19.390;-99.256;2023-12-20T11:51:22;29.85;;;27.85;;
20954;SDS011;10636;19.390;-99.256;2023-12-20T11:53:51;31.08;;;28.98;;
20954;SDS011;10636;19.390;-99.256;2023-12-20T11:56:20;28.27;;;26.38;;
20954;SDS011;10636;19.390;-99.256;2023-12-20T11:58:51;29.25;;;27.25;;
20954;SDS011;10636;19.390;-99.256;2023-12-20T12:01:20;28.77;;;26.77;;
20954;SDS011;10636;19.390;-99.256;2023-12-20T12:03:49;27.95;;;26.13;;
20954;SDS011;10636;19.390;-99.256;2023-12-20T12:06:30;27.95;;;26.05;;
20954;SDS011;10636;19.390;-99.256;2023-12-20T12:08:59;26.85;;;25.13;;
20954;SDS011;10636;19.390;-99.256;2023-12-20T12:11:29;28.48;;;26.58;;
20954;SDS011;10636;19.390;-99.256;2023-12-20T12:14:00;27.02;;;25.33;;
20954;SDS011;10636;19.390;-99.256;2023-12-20T12:16:29;25.58;;;23.77;;
20954;SDS011;10636;19.390;-99.256;2023-12-20T12:18:57;27.60;;;25.67;;
20954;SDS011;10636;19.390;-99.256;2023-12-20T12:21:27;27.83;;;25.98;;
20954;SDS011;10636;19.390;-99.256;2023-12-20T12:24:05;27.70;;;25.88;;
20954;SDS011;10636;19.390;-99.256;2023-12-20T12:26:35;27.20;;;25.30;;
20954;SDS011;10636;19.390;-99.256;2023-12-20T12:29:06;27.23;;;25.23;;
20954;SDS011;10636;19.390;-99.256;2023-12-20T12:31:35;27.23;;;25.42;;
20954;SDS011;10636;19.390;-99.256;2023-12-20T12:34:04;27.08;;;25.27;;
20954;SDS011;10636;19.390;-99.256;2023-12-20T12:36:34;27.77;;;25.77;;
20954;SDS011;10636;19.390;-99.256;2023-12-20T12:39:03;26.77;;;24.92;;
20954;SDS011;10636;19.390;-99.256;2023-12-20T12:41:32;26.55;;;24.65;;
20954;SDS011;10636;19.390;-99.256;2023-12-20T12:44:01;26.77;;;25.00;;
20954;SDS011;10636;19.390;-99.256;2023-12-20T12:46:32;26.63;;;24.73;;
20954;SDS011;10636;19.390;-99.256;2023-12-20T12:49:01;25.90;;;24.08;;
20954;SDS011;10636;19.390;-99.256;2023-12-20T12:51:29;25.13;;;23.38;;
20954;SDS011;10636;19.390;-99.256;2023-12-20T12:53:58;25.77;;;24.08;;
20954;SDS011;10636;19.390;-99.256;2023-12-20T12:56:27;26.42;;;24.70;;
20954;SDS011;10636;19.390;-99.256;2023-12-20T12:58:56;26.75;;;24.85;;
20954;SDS011;10636;19.390;-99.256;2023-12-20T13:01:25;24.70;;;23.00;;
20954;SDS011;10636;19.390;-99.256;2023-12-20T13:03:56;27.42;;;25.40;;
20954;SDS011;10636;19.390;-99.256;2023-12-20T13:06:26;26.02;;;24.15;;
20954;SDS011;10636;19.390;-99.256;2023-12-20T13:08:55;25.23;;;23.48;;
20954;SDS011;10636;19.390;-99.256;2023-12-20T13:11:24;23.38;;;21.70;;
20954;SDS011;10636;19.390;-99.256;2023-12-20T13:13:58;25.77;;;24.13;;
20954;SDS011;10636;19.390;-99.256;2023-12-20T13:16:28;23.15;;;21.55;;
20954;SDS011;10636;19.390;-99.256;2023-12-20T13:18:59;23.58;;;21.88;;
20954;SDS011;10636;19.390;-99.256;2023-12-20T13:21:29;23.60;;;22.05;;
20954;SDS011;10636;19.390;-99.256;2023-12-20T13:23:58;23.45;;;21.80;;
20954;SDS011;10636;19.390;-99.256;2023-12-20T13:26:27;24.00;;;22.20;;
20954;SDS011;10636;19.390;-99.256;2023-12-20T13:28:57;24.67;;;23.08;;
20954;SDS011;10636;19.390;-99.256;2023-12-20T13:31:26;24.60;;;22.80;;
20954;SDS011;10636;19.390;-99.256;2023-12-20T13:33:56;25.25;;;23.50;;
20954;SDS011;10636;19.390;-99.256;2023-12-20T13:36:28;26.60;;;24.63;;
20954;SDS011;10636;19.390;-99.256;2023-12-20T13:38:57;29.85;;;27.35;;
20954;SDS011;10636;19.390;-99.256;2023-12-20T13:41:26;31.70;;;29.15;;
20954;SDS011;10636;19.390;-99.256;2023-12-20T13:43:56;33.55;;;30.88;;
20954;SDS011;10636;19.390;-99.256;2023-12-20T13:46:25;34.63;;;31.85;;
20954;SDS011;10636;19.390;-99.256;2023-12-20T13:48:54;34.28;;;31.48;;
20954;SDS011;10636;19.390;-99.256;2023-12-20T13:51:23;35.60;;;32.60;;
20954;SDS011;10636;19.390;-99.256;2023-12-20T13:53:54;36.30;;;33.45;;
20954;SDS011;10636;19.390;-99.256;2023-12-20T13:56:23;35.83;;;32.70;;
20954;SDS011;10636;19.390;-99.256;2023-12-20T13:58:54;40.22;;;36.85;;
20954;SDS011;10636;19.390;-99.256;2023-12-20T14:01:23;37.28;;;34.15;;
20954;SDS011;10636;19.390;-99.256;2023-12-20T14:03:52;39.50;;;36.35;;
20954;SDS011;10636;19.390;-99.256;2023-12-20T14:06:22;37.75;;;34.72;;
20954;SDS011;10636;19.390;-99.256;2023-12-20T14:08:51;38.63;;;35.33;;
20954;SDS011;10636;19.390;-99.256;2023-12-20T14:11:22;38.45;;;35.35;;